Terminal Aerodrome Forecast
Issued by NWS Charleston, WV

Current Version | Previous Version | Graphics & Text | Print | Product List | Glossary On
Versions: 1 2 3 4 5 6 7 8 9 10 11 12 13 14 15 16 17 18 19 20 21 22 23 24 25 26 27 28 29 30
000
FTUS41 KRLX 261700
TAFBKW
TAF
KBKW 261739Z 2618/2718 24010G21KT P6SM BKN035
     FM262000 26009G17KT P6SM VCTS BKN035CB
     FM262100 26008KT P6SM VCTS BKN025CB
     FM262300 31009KT 4SM -RA BR OVC008
     FM270800 33007KT 5SM -RASN BR OVC008
     FM271000 33006KT P6SM BKN008
     FM271600 32009KT P6SM BKN035=

USA.gov is the U.S. government's official web portal to all federal, state and local government web resources and services.